createdAt,value
2023-01-05T00:01:55.055Z,12.02
2023-01-05T00:04:23.184Z,11.72
2023-01-05T00:06:53.203Z,11.94
2023-01-05T00:09:21.355Z,11.84
2023-01-05T00:12:06.701Z,11.76
2023-01-05T00:14:53.174Z,11.67
2023-01-05T00:17:41.543Z,11.89
2023-01-05T00:20:33.290Z,11.88
2023-01-05T00:23:01.471Z,11.75
2023-01-05T00:25:30.717Z,11.84
2023-01-05T00:27:59.278Z,11.81
2023-01-05T00:30:30.134Z,11.70
2023-01-05T00:32:59.579Z,11.89
2023-01-05T00:35:29.983Z,11.86
2023-01-05T00:37:57.831Z,11.72
2023-01-05T00:40:25.652Z,11.67
2023-01-05T00:42:53.480Z,11.67
2023-01-05T00:45:22.041Z,11.75
2023-01-05T00:47:51.723Z,11.64
2023-01-05T00:50:22.168Z,11.81
2023-01-05T00:52:50.882Z,11.75
2023-01-05T00:55:19.577Z,11.69
2023-01-05T00:57:47.430Z,11.63
2023-01-05T01:00:18.689Z,11.71
2023-01-05T01:02:46.975Z,11.63
2023-01-05T01:05:15.068Z,11.67
2023-01-05T01:07:44.405Z,11.82
2023-01-05T01:10:13.243Z,11.73
2023-01-05T01:15:09.498Z,11.83
2023-01-05T01:17:37.732Z,11.85
2023-01-05T01:20:06.754Z,11.79
2023-01-05T01:22:34.599Z,11.80
2023-01-05T01:25:04.142Z,11.75
2023-01-05T01:27:32.701Z,11.90
2023-01-05T01:30:00.710Z,12.01
2023-01-05T01:32:28.648Z,11.98
2023-01-05T01:34:56.590Z,11.89
2023-01-05T01:37:24.367Z,11.84
2023-01-05T01:39:52.200Z,12.15
2023-01-05T01:42:23.518Z,12.07
2023-01-05T01:44:55.453Z,12.19
2023-01-05T01:47:30.680Z,12.13
2023-01-05T01:50:01.334Z,12.02
2023-01-05T01:52:32.398Z,12.13
2023-01-05T01:55:01.849Z,12.33
2023-01-05T01:57:31.498Z,12.24
2023-01-05T02:00:02.975Z,12.22
2023-01-05T02:02:31.221Z,12.36
2023-01-05T02:05:05.332Z,12.26
2023-01-05T02:07:36.211Z,12.32
2023-01-05T02:10:06.581Z,12.10
2023-01-05T02:12:48.727Z,12.13
2023-01-05T02:15:25.456Z,12.34
2023-01-05T02:18:08.659Z,12.16
2023-01-05T02:20:54.054Z,12.28
2023-01-05T02:23:47.125Z,12.19
2023-01-05T02:26:50.247Z,12.31
2023-01-05T02:29:41.265Z,12.30
2023-01-05T02:32:14.750Z,12.20
2023-01-05T02:34:50.715Z,12.32
2023-01-05T02:37:25.860Z,12.50
2023-01-05T02:39:58.044Z,12.27
2023-01-05T02:42:27.997Z,12.18
2023-01-05T02:44:55.953Z,12.26
2023-01-05T02:47:44.970Z,12.39
2023-01-05T02:50:18.997Z,12.30
2023-01-05T02:52:54.556Z,12.33
2023-01-05T02:55:25.611Z,12.26
2023-01-05T02:57:57.558Z,12.38
2023-01-05T03:00:27.963Z,12.35
2023-01-05T03:03:02.145Z,12.46
2023-01-05T03:05:35.903Z,12.45
2023-01-05T03:08:07.950Z,12.47
2023-01-05T03:11:01.032Z,12.42
2023-01-05T03:13:44.046Z,12.64
2023-01-05T03:16:16.354Z,12.63
2023-01-05T03:19:04.622Z,12.65
2023-01-05T03:21:49.935Z,12.61
2023-01-05T03:24:35.679Z,12.65
2023-01-05T03:27:22.619Z,12.69
2023-01-05T03:30:07.978Z,12.75
2023-01-05T03:32:56.741Z,12.70
2023-01-05T03:35:32.834Z,12.78
2023-01-05T03:38:04.897Z,12.73
2023-01-05T03:40:35.896Z,12.80
2023-01-05T03:43:05.429Z,12.49
2023-01-05T03:45:37.629Z,12.61
2023-01-05T03:48:06.404Z,12.60
2023-01-05T03:50:35.852Z,12.54
2023-01-05T03:53:03.940Z,12.58
2023-01-05T03:55:31.791Z,12.49
2023-01-05T03:57:59.584Z,12.59
2023-01-05T04:00:27.473Z,12.53
2023-01-05T04:02:55.397Z,12.53
2023-01-05T04:05:23.369Z,12.53
2023-01-05T04:07:52.555Z,12.49
2023-01-05T04:10:20.516Z,12.57
2023-01-05T04:12:49.282Z,12.63
2023-01-05T04:15:17.192Z,12.58
2023-01-05T04:17:45.092Z,12.60
2023-01-05T04:20:13.341Z,12.66
2023-01-05T04:22:41.989Z,12.55
2023-01-05T04:25:11.364Z,12.55
2023-01-05T04:27:39.186Z,12.61
2023-01-05T04:30:08.444Z,12.60
2023-01-05T04:32:36.236Z,12.63
2023-01-05T04:35:10.852Z,12.63
2023-01-05T04:37:40.038Z,12.59
2023-01-05T04:40:09.060Z,12.61
2023-01-05T04:42:38.283Z,12.66
2023-01-05T04:45:07.065Z,12.64
2023-01-05T04:47:34.885Z,12.57
2023-01-05T04:50:02.678Z,12.59
2023-01-05T04:52:30.764Z,12.51
2023-01-05T04:54:58.596Z,12.57
2023-01-05T04:57:26.445Z,12.57
2023-01-05T04:59:55.588Z,12.49
2023-01-05T05:02:23.836Z,12.45
2023-01-05T05:04:51.938Z,12.43
2023-01-05T05:07:19.890Z,12.46
2023-01-05T05:09:47.764Z,12.51
2023-01-05T05:12:15.778Z,12.43
2023-01-05T05:14:43.634Z,12.52
2023-01-05T05:17:12.843Z,12.53
2023-01-05T05:19:40.636Z,12.56
2023-01-05T05:22:08.810Z,12.61
2023-01-05T05:24:36.677Z,12.58
2023-01-05T05:27:04.704Z,12.58
2023-01-05T05:29:32.616Z,12.42
2023-01-05T05:32:00.755Z,12.46
2023-01-05T05:34:30.021Z,12.55
2023-01-05T05:36:57.901Z,12.51
2023-01-05T05:39:25.778Z,12.58
2023-01-05T05:41:53.923Z,12.55
2023-01-05T05:44:21.783Z,12.50
2023-01-05T05:46:49.610Z,12.58
2023-01-05T05:49:17.423Z,12.52
2023-01-05T05:51:46.538Z,12.54
2023-01-05T05:54:14.325Z,12.32
2023-01-05T05:56:42.088Z,12.57
2023-01-05T05:59:10.067Z,12.43
2023-01-05T06:01:38.037Z,12.28
2023-01-05T06:04:06.351Z,12.31
2023-01-05T06:06:34.160Z,12.41
2023-01-05T06:09:03.385Z,12.38
2023-01-05T06:11:31.306Z,12.24
2023-01-05T06:13:59.309Z,12.30
2023-01-05T06:16:27.351Z,12.41
2023-01-05T06:18:55.227Z,12.46
2023-01-05T06:21:23.229Z,12.36
2023-01-05T06:23:53.730Z,12.32
2023-01-05T06:26:23.091Z,12.39
2023-01-05T06:28:50.978Z,12.34
2023-01-05T06:31:18.887Z,12.26
2023-01-05T06:33:46.705Z,12.61
2023-01-05T06:36:15.868Z,12.34
2023-01-05T06:38:43.754Z,12.26
2023-01-05T06:41:11.729Z,12.46
2023-01-05T06:43:40.892Z,12.40
2023-01-05T06:46:08.779Z,12.34
2023-01-05T06:48:36.713Z,12.56
2023-01-05T06:51:04.739Z,12.51
2023-01-05T06:53:32.621Z,12.39
2023-01-05T06:56:00.463Z,12.48
2023-01-05T06:58:28.453Z,12.40
2023-01-05T07:00:58.082Z,12.41
2023-01-05T07:03:26.070Z,12.50
2023-01-05T07:05:54.239Z,12.48
2023-01-05T07:08:22.071Z,12.61
2023-01-05T07:10:49.856Z,12.50
2023-01-05T07:13:17.624Z,12.54
2023-01-05T07:15:45.469Z,12.61
2023-01-05T07:18:14.831Z,12.56
2023-01-05T07:20:42.770Z,12.56
2023-01-05T07:23:10.505Z,12.56
2023-01-05T07:25:38.380Z,12.44
2023-01-05T07:28:06.431Z,12.31
2023-01-05T07:30:34.424Z,12.48
2023-01-05T07:33:02.336Z,12.42
2023-01-05T07:35:31.457Z,12.49
2023-01-05T07:37:59.292Z,12.43
2023-01-05T07:40:28.492Z,12.44
2023-01-05T07:42:56.468Z,12.49
2023-01-05T07:45:24.463Z,12.33
2023-01-05T07:47:52.586Z,12.55
2023-01-05T07:50:21.134Z,12.54
2023-01-05T07:52:50.303Z,12.55
2023-01-05T07:55:18.242Z,12.54
2023-01-05T07:57:46.981Z,12.44
2023-01-05T08:00:15.615Z,12.59
2023-01-05T08:02:43.959Z,12.51
2023-01-05T08:05:11.936Z,12.66
2023-01-05T08:07:39.714Z,12.57
2023-01-05T08:10:28.313Z,12.71
2023-01-05T08:13:13.504Z,12.69
2023-01-05T08:15:44.798Z,12.54
2023-01-05T08:18:17.054Z,12.48
2023-01-05T08:20:44.904Z,12.59
2023-01-05T08:23:12.671Z,12.47
2023-01-05T08:25:56.601Z,12.69
2023-01-05T08:28:29.880Z,12.49
2023-01-05T08:31:03.205Z,12.27
2023-01-05T08:33:30.965Z,12.50
2023-01-05T08:35:58.901Z,12.18
2023-01-05T08:38:27.449Z,12.25
2023-01-05T08:41:00.404Z,12.19
2023-01-05T08:43:28.700Z,12.22
2023-01-05T08:45:57.906Z,12.46
2023-01-05T08:48:25.848Z,12.31
2023-01-05T08:50:54.833Z,12.50
2023-01-05T08:53:22.820Z,12.40
2023-01-05T08:55:50.759Z,12.29
2023-01-05T08:58:19.972Z,12.26
2023-01-05T09:00:48.048Z,12.45
2023-01-05T09:03:15.962Z,12.54
2023-01-05T09:05:43.913Z,12.36
2023-01-05T09:08:11.741Z,12.40
2023-01-05T09:10:39.999Z,12.37
2023-01-05T09:13:07.911Z,12.56
2023-01-05T09:15:51.044Z,12.45
2023-01-05T09:18:21.704Z,12.71
2023-01-05T09:20:56.347Z,12.35
2023-01-05T09:23:43.689Z,12.24
2023-01-05T09:26:13.073Z,12.22
2023-01-05T09:28:40.956Z,12.34
2023-01-05T09:31:12.075Z,12.24
2023-01-05T09:33:40.461Z,12.40
2023-01-05T09:36:09.540Z,12.48
2023-01-05T09:38:42.066Z,12.57
2023-01-05T09:41:16.668Z,12.43
2023-01-05T09:43:45.790Z,12.78
2023-01-05T09:46:19.804Z,12.69
2023-01-05T09:48:53.532Z,12.95
2023-01-05T09:51:21.428Z,13.03
2023-01-05T09:53:49.623Z,12.61
2023-01-05T09:56:58.838Z,12.98
2023-01-05T09:59:18.102Z,13.18
2023-01-05T10:01:49.353Z,13.02
2023-01-05T10:04:22.859Z,13.11
2023-01-05T10:06:58.364Z,12.93
2023-01-05T10:09:31.213Z,12.85
2023-01-05T10:12:21.245Z,13.04
2023-01-05T10:14:54.215Z,13.00
2023-01-05T10:17:42.321Z,13.25
2023-01-05T10:20:29.395Z,13.01
2023-01-05T10:23:06.905Z,12.93
2023-01-05T10:25:42.660Z,12.95
2023-01-05T10:28:30.859Z,13.06
2023-01-05T10:31:00.905Z,13.22
2023-01-05T10:33:53.112Z,13.26
2023-01-05T10:39:47.613Z,13.23
2023-01-05T10:42:25.349Z,13.28
2023-01-05T10:44:56.556Z,13.31
2023-01-05T10:47:26.981Z,13.28
2023-01-05T10:49:56.457Z,13.53
2023-01-05T10:52:24.279Z,13.39
2023-01-05T10:54:55.726Z,13.49
2023-01-05T10:57:38.816Z,13.78
2023-01-05T11:00:14.076Z,13.31
2023-01-05T11:02:47.666Z,13.05
2023-01-05T11:05:27.722Z,13.50
2023-01-05T11:07:57.808Z,13.43
2023-01-05T11:10:31.023Z,13.56
2023-01-05T11:13:05.809Z,13.32
2023-01-05T11:15:40.675Z,13.13
2023-01-05T11:18:19.881Z,13.24
2023-01-05T11:21:07.688Z,13.50
2023-01-05T11:23:37.415Z,13.25
2023-01-05T11:26:27.695Z,13.57
2023-01-05T11:29:13.729Z,13.16
2023-01-05T11:31:46.804Z,13.44
2023-01-05T11:34:25.325Z,13.39
2023-01-05T11:36:59.094Z,13.27
2023-01-05T11:39:32.818Z,13.35
2023-01-05T11:42:20.219Z,13.44
2023-01-05T11:44:55.045Z,13.49
2023-01-05T11:47:27.144Z,13.76
2023-01-05T11:50:07.018Z,13.61
2023-01-05T11:52:40.290Z,13.44
2023-01-05T11:55:30.299Z,13.33
2023-01-05T11:58:22.441Z,13.60
2023-01-05T12:01:07.257Z,13.62
2023-01-05T12:03:58.879Z,13.78
2023-01-05T12:06:39.287Z,13.44
2023-01-05T12:09:16.989Z,13.68
2023-01-05T12:11:54.160Z,13.64
2023-01-05T12:14:40.949Z,13.78
2023-01-05T12:17:14.474Z,13.48
2023-01-05T12:20:21.992Z,13.44
2023-01-05T12:23:11.674Z,13.78
2023-01-05T12:25:57.251Z,13.80
2023-01-05T12:28:42.146Z,13.65
2023-01-05T12:34:38.072Z,14.04
2023-01-05T12:37:20.270Z,13.90
2023-01-05T12:40:11.303Z,14.09
2023-01-05T12:42:58.658Z,14.25
2023-01-05T12:45:37.746Z,14.21
2023-01-05T12:48:10.203Z,14.40
2023-01-05T12:50:45.331Z,14.16
2023-01-05T12:53:25.703Z,14.07
2023-01-05T12:55:58.374Z,14.16
2023-01-05T12:58:34.046Z,14.47
2023-01-05T13:01:08.283Z,14.04
2023-01-05T13:03:44.167Z,14.01
2023-01-05T13:06:16.660Z,14.16
2023-01-05T13:08:49.877Z,14.00
2023-01-05T13:11:25.592Z,14.15
2023-01-05T13:14:05.767Z,14.22
2023-01-05T13:16:39.056Z,14.30
2023-01-05T13:19:14.696Z,14.16
2023-01-05T13:21:45.719Z,14.25
2023-01-05T13:24:22.735Z,14.40
2023-01-05T13:26:51.004Z,14.23
2023-01-05T13:29:25.000Z,14.10
2023-01-05T13:32:09.160Z,14.30
2023-01-05T13:35:12.769Z,14.32
2023-01-05T13:38:06.578Z,14.34
2023-01-05T13:41:03.595Z,14.41
2023-01-05T13:43:48.351Z,14.43
2023-01-05T13:46:40.400Z,14.04
2023-01-05T13:49:39.891Z,14.22
2023-01-05T13:52:22.060Z,14.35
2023-01-05T13:55:01.471Z,14.27
2023-01-05T13:57:36.590Z,14.52
2023-01-05T14:00:12.457Z,14.40
2023-01-05T14:02:47.257Z,14.18
2023-01-05T14:05:26.141Z,14.52
2023-01-05T14:07:56.942Z,14.29
2023-01-05T14:10:27.981Z,14.25
2023-01-05T14:12:56.347Z,14.34
2023-01-05T14:15:40.485Z,14.15
2023-01-05T14:18:11.339Z,14.08
2023-01-05T14:20:49.287Z,14.34
2023-01-05T14:23:57.355Z,14.17
2023-01-05T14:27:06.904Z,14.09
2023-01-05T14:30:10.260Z,13.97
2023-01-05T14:32:41.376Z,13.93
2023-01-05T14:35:26.217Z,13.82
2023-01-05T14:38:00.507Z,13.88
2023-01-05T14:40:38.837Z,14.00
2023-01-05T14:43:21.593Z,14.15
2023-01-05T14:46:01.109Z,14.01
2023-01-05T14:48:35.230Z,13.59
2023-01-05T14:51:23.886Z,13.23
2023-01-05T14:53:54.357Z,13.43
2023-01-05T14:56:25.767Z,13.25
2023-01-05T14:59:02.883Z,13.34
2023-01-05T15:04:12.384Z,13.20
2023-01-05T15:07:07.550Z,13.28
2023-01-05T15:09:50.381Z,13.10
2023-01-05T15:12:37.547Z,13.14
2023-01-05T15:15:25.329Z,13.17
2023-01-05T15:18:41.154Z,13.25
2023-01-05T15:21:33.439Z,13.17
2023-01-05T15:24:36.060Z,13.26
2023-01-05T15:27:24.192Z,13.12
2023-01-05T15:30:06.466Z,12.96
2023-01-05T15:32:38.950Z,13.01
2023-01-05T15:35:17.096Z,12.98
2023-01-05T15:37:50.264Z,12.77
2023-01-05T15:40:53.766Z,12.62
2023-01-05T15:43:22.248Z,12.82
2023-01-05T15:45:53.635Z,13.07
2023-01-05T15:48:32.765Z,13.04
2023-01-05T15:51:02.393Z,13.13
2023-01-05T15:53:33.257Z,13.00
2023-01-05T15:56:03.925Z,12.87
2023-01-05T15:58:33.729Z,12.81
2023-01-05T16:01:04.935Z,13.01
2023-01-05T16:03:35.121Z,13.01
2023-01-05T16:06:10.186Z,13.04
2023-01-05T16:08:43.095Z,12.86
2023-01-05T16:11:16.173Z,12.83
2023-01-05T16:13:49.326Z,12.84
2023-01-05T16:16:49.587Z,12.85
2023-01-05T16:19:13.287Z,12.94
2023-01-05T16:21:44.509Z,12.89
2023-01-05T16:24:20.263Z,12.77
2023-01-05T16:26:49.946Z,12.86
2023-01-05T16:29:30.951Z,12.84
2023-01-05T16:31:59.182Z,12.60
2023-01-05T16:34:31.313Z,12.68
2023-01-05T16:37:04.185Z,12.76
2023-01-05T16:39:39.953Z,12.58
2023-01-05T16:42:39.833Z,12.71
2023-01-05T16:45:10.402Z,12.61
2023-01-05T16:47:40.088Z,12.56
2023-01-05T16:50:54.491Z,12.51
2023-01-05T16:53:24.694Z,12.73
2023-01-05T16:55:55.143Z,12.65
2023-01-05T16:58:38.554Z,12.55
2023-01-05T17:01:26.936Z,12.55
2023-01-05T17:03:55.263Z,12.71
2023-01-05T17:06:28.563Z,12.51
2023-01-05T17:09:00.028Z,12.57
2023-01-05T17:11:31.473Z,12.40
2023-01-05T17:14:02.225Z,12.72
2023-01-05T17:16:31.989Z,12.30
2023-01-05T17:19:02.087Z,12.42
2023-01-05T17:21:33.503Z,12.55
2023-01-05T17:24:01.879Z,12.54
2023-01-05T17:26:33.378Z,12.38
2023-01-05T17:29:04.805Z,12.44
2023-01-05T17:31:32.704Z,12.52
2023-01-05T17:34:00.651Z,12.50
2023-01-05T17:36:31.318Z,12.49
2023-01-05T17:39:01.441Z,12.49
2023-01-05T17:41:29.655Z,12.59
2023-01-05T17:43:57.634Z,12.60
2023-01-05T17:46:31.554Z,12.70
2023-01-05T17:49:00.609Z,12.69
2023-01-05T17:51:29.130Z,12.73
2023-01-05T17:53:57.547Z,12.67
2023-01-05T17:56:25.644Z,12.64
2023-01-05T17:58:54.203Z,12.58
2023-01-05T18:01:22.440Z,12.50
2023-01-05T18:03:51.821Z,12.59
2023-01-05T18:06:19.788Z,12.54
2023-01-05T18:08:47.817Z,12.51
2023-01-05T18:11:17.359Z,12.41
2023-01-05T18:13:46.008Z,12.40
2023-01-05T18:16:17.181Z,12.26
2023-01-05T18:18:45.205Z,12.39
2023-01-05T18:21:17.991Z,12.32
2023-01-05T18:23:45.846Z,12.18
2023-01-05T18:26:13.718Z,12.17
2023-01-05T18:28:41.822Z,12.06
2023-01-05T18:31:11.606Z,12.02
2023-01-05T18:33:39.657Z,11.86
2023-01-05T18:36:09.011Z,11.81
2023-01-05T18:38:38.869Z,11.92
2023-01-05T18:41:06.893Z,12.05
2023-01-05T18:43:35.286Z,11.85
2023-01-05T18:46:03.603Z,11.90
2023-01-05T18:48:32.011Z,11.93
2023-01-05T18:50:59.876Z,11.90
2023-01-05T18:53:27.908Z,11.94
2023-01-05T18:55:57.153Z,12.13
2023-01-05T18:58:25.190Z,11.87
2023-01-05T19:00:53.183Z,11.93
2023-01-05T19:03:21.186Z,12.13
2023-01-05T19:05:49.004Z,12.01
2023-01-05T19:08:19.347Z,12.01
2023-01-05T19:10:47.236Z,11.88
2023-01-05T19:13:16.444Z,11.74
2023-01-05T19:15:44.301Z,11.76
2023-01-05T19:18:12.183Z,11.85
2023-01-05T19:20:40.228Z,11.91
2023-01-05T19:23:08.268Z,11.92
2023-01-05T19:25:36.051Z,11.73
2023-01-05T19:28:03.981Z,12.06
2023-01-05T19:30:33.299Z,12.01
2023-01-05T19:33:02.257Z,11.91
2023-01-05T19:35:31.272Z,12.31
2023-01-05T19:38:00.370Z,12.07
2023-01-05T19:40:28.494Z,11.81
2023-01-05T19:42:57.045Z,12.00
2023-01-05T19:45:25.162Z,11.70
2023-01-05T19:47:54.549Z,11.66
2023-01-05T19:50:22.450Z,11.79
2023-01-05T19:52:50.358Z,11.59
2023-01-05T19:55:18.753Z,11.79
2023-01-05T19:57:47.157Z,11.39
2023-01-05T20:00:16.362Z,11.39
2023-01-05T20:02:44.531Z,11.25
2023-01-05T20:05:14.157Z,11.25
2023-01-05T20:07:43.592Z,11.21
2023-01-05T20:10:12.550Z,11.01
2023-01-05T20:12:41.213Z,11.17
2023-01-05T20:15:13.850Z,11.11
2023-01-05T20:17:45.428Z,11.00
2023-01-05T20:20:18.301Z,11.09
2023-01-05T20:22:46.374Z,10.89
2023-01-05T20:25:14.476Z,11.26
2023-01-05T20:27:42.719Z,11.51
2023-01-05T20:30:13.808Z,11.37
2023-01-05T20:32:44.028Z,11.15
2023-01-05T20:35:14.037Z,11.26
2023-01-05T20:37:43.482Z,11.23
2023-01-05T20:40:11.890Z,11.28
2023-01-05T20:42:39.918Z,11.50
2023-01-05T20:45:09.055Z,11.50
2023-01-05T20:47:47.101Z,11.48
2023-01-05T20:50:15.879Z,11.42
2023-01-05T20:52:45.576Z,11.38
2023-01-05T20:55:13.628Z,11.46
2023-01-05T20:57:41.595Z,11.47
2023-01-05T21:00:12.500Z,11.30
2023-01-05T21:02:40.743Z,11.66
2023-01-05T21:05:11.805Z,11.45
2023-01-05T21:07:39.870Z,11.51
2023-01-05T21:10:09.837Z,11.26
2023-01-05T21:12:37.742Z,11.67
2023-01-05T21:15:06.600Z,11.52
2023-01-05T21:17:34.730Z,11.65
2023-01-05T21:20:03.479Z,11.69
2023-01-05T21:22:31.353Z,11.54
2023-01-05T21:24:59.339Z,11.41
2023-01-05T21:27:28.675Z,11.51
2023-01-05T21:29:56.568Z,11.45
2023-01-05T21:32:24.492Z,11.74
2023-01-05T21:34:52.400Z,11.71
2023-01-05T21:37:20.373Z,11.57
2023-01-05T21:39:48.957Z,11.77
2023-01-05T21:42:34.495Z,11.82
2023-01-05T21:45:03.760Z,11.66
2023-01-05T21:47:31.697Z,11.74
2023-01-05T21:49:59.617Z,11.70
2023-01-05T21:52:44.813Z,11.95
2023-01-05T21:55:30.169Z,11.75
2023-01-05T21:57:58.019Z,11.75
2023-01-05T22:00:27.313Z,11.69
2023-01-05T22:02:55.238Z,11.96
2023-01-05T22:05:23.189Z,11.77
2023-01-05T22:07:51.960Z,11.89
2023-01-05T22:10:20.070Z,11.96
2023-01-05T22:12:48.018Z,11.81
2023-01-05T22:15:15.981Z,11.95
2023-01-05T22:17:45.276Z,12.19
2023-01-05T22:20:14.489Z,11.93
2023-01-05T22:22:42.479Z,12.02
2023-01-05T22:25:10.798Z,12.07
2023-01-05T22:27:38.685Z,11.84
2023-01-05T22:30:08.636Z,11.91
2023-01-05T22:32:36.861Z,11.62
2023-01-05T22:35:06.917Z,11.98
2023-01-05T22:37:34.730Z,11.64
2023-01-05T22:40:02.682Z,11.58
2023-01-05T22:42:30.708Z,11.75
2023-01-05T22:44:58.617Z,11.63
2023-01-05T22:47:26.780Z,11.72
2023-01-05T22:49:54.706Z,11.81
2023-01-05T22:52:24.153Z,11.58
2023-01-05T22:54:51.994Z,11.51
2023-01-05T22:57:20.077Z,11.36
2023-01-05T22:59:48.023Z,11.65
2023-01-05T23:02:15.962Z,11.68
2023-01-05T23:04:43.848Z,11.79
2023-01-05T23:07:11.686Z,11.74
2023-01-05T23:09:41.185Z,11.62
2023-01-05T23:12:09.623Z,11.98
2023-01-05T23:14:38.513Z,11.83
2023-01-05T23:17:06.512Z,11.85
2023-01-05T23:19:34.284Z,11.90
2023-01-05T23:22:02.001Z,12.03
2023-01-05T23:24:29.935Z,11.89
2023-01-05T23:26:59.105Z,11.95
2023-01-05T23:29:27.419Z,11.96
2023-01-05T23:31:55.273Z,11.91
2023-01-05T23:34:23.112Z,11.80
2023-01-05T23:36:50.979Z,12.02
2023-01-05T23:39:18.825Z,12.18
2023-01-05T23:41:46.588Z,12.21
2023-01-05T23:44:17.093Z,12.07
2023-01-05T23:46:46.037Z,12.26
2023-01-05T23:49:13.820Z,12.46
2023-01-05T23:51:41.703Z,12.29
2023-01-05T23:54:11.043Z,12.14
2023-01-05T23:56:39.326Z,12.04
2023-01-05T23:59:08.923Z,12.25
